Time;durP1;ratioP1;P1;durP2;ratioP2;P2;SDS_P1;SDS_P2;PMS_P1;PMS_P2;Temp;Humidity;BMP_temperature;BMP_pressure;BME280_temperature;BME280_humidity;BME280_pressure;Samples;Min_cycle;Max_cycle;Signal;HPM_P1;HPM_P2
2023/02/27 00:01:05;;;;;;;;;;;;;;;-0.92;68.50;101741.60;105400;1290;68280;-80
2023/02/27 00:03:51;;;;;;;;;;;;;;;-0.95;68.55;101740.10;105479;1291;72587;-80
2023/02/27 00:06:37;;;;;;;;;;;;;;;-0.97;68.53;101740.71;105367;1288;60501;-81
2023/02/27 00:09:24;;;;;;;;;;;;;;;-0.99;68.49;101745.02;105368;1288;60157;-81
2023/02/27 00:12:10;;;;;;;;;;;;;;;-1.01;68.57;101746.79;105440;1288;74117;-81
2023/02/27 00:14:57;;;;;;;;;;;;;;;-1.01;68.68;101751.86;105505;1288;66856;-80
2023/02/27 00:17:43;;;;;;;;;;;;;;;-1.04;68.52;101754.96;105461;1288;71240;-81
2023/02/27 00:20:31;;;;;;;;;;;;;;;-1.06;68.52;101753.48;105371;1288;61912;-81
2023/02/27 00:23:17;;;;;;;;;;;;;;;-1.10;68.52;101757.55;105534;1288;62156;-80
2023/02/27 00:26:03;;;;;;;;;;;;;;;-1.11;68.58;101755.43;105481;1291;74683;-80
2023/02/27 00:28:49;;;;;;;;;;;;;;;-1.15;68.51;101758.98;105384;1288;68485;-80
2023/02/27 00:31:35;;;;;;;;;;;;;;;-1.20;68.62;101757.36;105433;1288;72180;-80
2023/02/27 00:34:22;;;;;;;;;;;;;;;-1.22;68.65;101758.12;105444;1288;62039;-81
2023/02/27 00:37:08;;;;;;;;;;;;;;;-1.23;68.52;101759.73;105431;1288;60600;-80
2023/02/27 00:39:54;;;;;;;;;;;;;;;-1.27;68.69;101761.91;105492;1288;74988;-80
2023/02/27 00:42:41;;;;;;;;;;;;;;;-1.34;68.75;101764.46;105517;1288;68096;-81
2023/02/27 00:45:27;;;;;;;;;;;;;;;-1.38;68.69;101761.73;105398;1291;71212;-81
2023/02/27 00:48:13;;;;;;;;;;;;;;;-1.40;68.72;101764.63;105481;1288;62077;-81
2023/02/27 00:50:59;;;;;;;;;;;;;;;-1.41;68.75;101767.27;105455;1288;61975;-81
2023/02/27 00:53:45;;;;;;;;;;;;;;;-1.42;68.71;101769.80;105415;1288;75604;-81
2023/02/27 00:56:31;;;;;;;;;;;;;;;-1.39;68.80;101764.70;105511;1291;70651;-81
2023/02/27 00:59:18;;;;;;;;;;;;;;;-1.39;68.74;101769.23;105437;1288;71928;-81
2023/02/27 01:02:04;;;;;;;;;;;;;;;-1.41;68.72;101767.61;105377;1291;62062;-81
2023/02/27 01:04:51;;;;;;;;;;;;;;;-1.44;68.79;101768.16;105395;1291;62071;-81
2023/02/27 01:07:38;;;;;;;;;;;;;;;-1.48;68.82;101764.57;105340;1288;75370;-81
2023/02/27 01:10:24;;;;;;;;;;;;;;;-1.52;68.75;101764.86;105367;1288;67957;-81
2023/02/27 01:13:10;;;;;;;;;;;;;;;-1.56;68.83;101765.88;105518;1292;71308;-81
2023/02/27 01:15:56;;;;;;;;;;;;;;;-1.57;68.86;101772.92;105377;1288;60603;-81
2023/02/27 01:18:42;;;;;;;;;;;;;;;-1.58;68.90;101770.70;105532;1289;60259;-81
2023/02/27 01:21:28;;;;;;;;;;;;;;;-1.57;68.95;101773.09;105384;1291;74683;-81
2023/02/27 01:24:14;;;;;;;;;;;;;;;-1.57;68.85;101769.16;105365;1288;69035;-81
2023/02/27 01:27:01;;;;;;;;;;;;;;;-1.63;68.81;101767.38;105318;1288;72902;-81
2023/02/27 01:29:47;;;;;;;;;;;;;;;-1.66;68.94;101765.87;105365;1288;60206;-81
2023/02/27 01:32:33;;;;;;;;;;;;;;;-1.65;68.96;101769.45;105287;1288;61857;-81
2023/02/27 01:35:19;;;;;;;;;;;;;;;-1.63;69.06;101771.05;105473;1288;76738;-81
2023/02/27 01:38:05;;;;;;;;;;;;;;;-1.63;69.01;101771.40;105382;1288;67377;-81
2023/02/27 01:40:51;;;;;;;;;;;;;;;-1.67;68.97;101765.84;105312;1289;71173;-81
2023/02/27 01:43:57;;;;;;;;;;;;;;;-1.69;68.97;101768.61;105376;1290;60015;-81
2023/02/27 01:46:43;;;;;;;;;;;;;;;-1.70;69.03;101771.75;105447;1288;61882;-81
2023/02/27 01:49:32;;;;;;;;;;;;;;;-1.73;69.02;101774.79;105429;1289;74021;-81
2023/02/27 01:52:18;;;;;;;;;;;;;;;-1.77;69.04;101779.80;105379;1288;67960;-81
2023/02/27 01:55:08;;;;;;;;;;;;;;;-1.82;69.08;101781.60;105441;1288;71233;-81
2023/02/27 01:57:55;;;;;;;;;;;;;;;-1.87;69.10;101779.82;105293;1288;60638;-81
2023/02/27 02:00:41;;;;;;;;;;;;;;;-1.88;69.20;101776.38;105478;1288;60338;-81
2023/02/27 02:03:34;;;;;;;;;;;;;;;-1.88;69.17;101777.69;105381;1288;74096;-81
2023/02/27 02:06:21;;;;;;;;;;;;;;;-1.87;69.20;101777.08;105446;1288;68622;-81
2023/02/27 02:09:08;;;;;;;;;;;;;;;-1.86;69.13;101776.48;105398;1292;71657;-81
2023/02/27 02:11:55;;;;;;;;;;;;;;;-1.85;69.16;101775.17;105303;1290;60188;-81
2023/02/27 02:14:42;;;;;;;;;;;;;;;-1.88;69.14;101780.10;105405;1288;60370;-81
2023/02/27 02:17:51;;;;;;;;;;;;;;;-1.90;69.15;101775.73;105399;1288;74843;-81
2023/02/27 02:20:57;;;;;;;;;;;;;;;-1.95;69.08;101779.17;104980;1296;67752;-81
2023/02/27 02:23:43;;;;;;;;;;;;;;;-1.97;69.18;101781.13;104503;1305;71606;-81
2023/02/27 02:26:43;;;;;;;;;;;;;;;-1.97;69.22;101783.33;104520;1302;60152;-81
2023/02/27 02:29:29;;;;;;;;;;;;;;;-1.97;69.12;101789.73;104390;1302;60651;-82
2023/02/27 02:32:50;;;;;;;;;;;;;;;-1.99;69.24;101791.30;104473;1302;74958;-82
2023/02/27 02:36:05;;;;;;;;;;;;;;;-2.01;69.29;101792.59;104048;1305;68591;-81
2023/02/27 02:39:27;;;;;;;;;;;;;;;-2.04;69.24;101792.07;103268;1313;72347;-81
2023/02/27 02:42:31;;;;;;;;;;;;;;;-2.07;69.25;101792.42;102896;1320;62185;-81
2023/02/27 02:45:25;;;;;;;;;;;;;;;-2.08;69.26;101791.73;102812;1321;62159;-81
2023/02/27 02:48:24;;;;;;;;;;;;;;;-2.08;69.27;101794.92;102836;1319;76471;-82
2023/02/27 02:51:43;;;;;;;;;;;;;;;-2.08;69.37;101796.10;102829;1320;68465;-81
2023/02/27 02:54:41;;;;;;;;;;;;;;;-2.08;69.36;101801.48;102064;1323;783044;-81
2023/02/27 02:57:47;;;;;;;;;;;;;;;-2.08;69.30;101804.54;102677;1320;60497;-81
2023/02/27 03:00:44;;;;;;;;;;;;;;;-2.11;69.30;101807.08;103111;1311;60890;-81
2023/02/27 03:03:33;;;;;;;;;;;;;;;-2.16;69.42;101811.57;103439;1314;78756;-81
2023/02/27 03:06:28;;;;;;;;;;;;;;;-2.14;69.36;101816.04;103381;1311;68632;-81
2023/02/27 03:09:19;;;;;;;;;;;;;;;-2.14;69.41;101821.11;103514;1305;71427;-81
2023/02/27 03:12:08;;;;;;;;;;;;;;;-2.13;69.50;101824.88;104050;1305;62993;-81
2023/02/27 03:15:09;;;;;;;;;;;;;;;-2.11;69.55;101831.73;104029;1303;60838;-81
2023/02/27 03:18:02;;;;;;;;;;;;;;;-2.05;69.58;101830.88;104775;1297;74201;-81
2023/02/27 03:20:54;;;;;;;;;;;;;;;-2.00;69.65;101828.62;104773;1296;67331;-81
2023/02/27 03:23:46;;;;;;;;;;;;;;;-1.95;69.67;101837.64;104799;1301;75459;-82
2023/02/27 03:26:35;;;;;;;;;;;;;;;-1.91;69.73;101838.02;104653;1296;60681;-81
2023/02/27 03:29:44;;;;;;;;;;;;;;;-1.88;69.77;101838.04;104868;1288;62062;-81
2023/02/27 03:32:41;;;;;;;;;;;;;;;-1.82;69.83;101837.53;105372;1288;74985;-81
2023/02/27 03:35:37;;;;;;;;;;;;;;;-1.76;69.89;101837.52;105444;1292;68183;-81
2023/02/27 03:38:42;;;;;;;;;;;;;;;-1.69;69.96;101837.90;105474;1288;72428;-81
2023/02/27 03:41:39;;;;;;;;;;;;;;;-1.62;70.03;101835.17;105401;1289;62120;-81
2023/02/27 03:44:25;;;;;;;;;;;;;;;-1.55;70.10;101837.91;105533;1289;60104;-81
2023/02/27 03:47:11;;;;;;;;;;;;;;;-1.50;70.21;101837.70;105459;1288;75109;-82
2023/02/27 03:49:57;;;;;;;;;;;;;;;-1.44;70.21;101837.51;105364;1288;68591;-82
2023/02/27 03:52:44;;;;;;;;;;;;;;;-1.36;70.23;101846.04;105406;1288;71700;-82
2023/02/27 03:55:34;;;;;;;;;;;;;;;-1.28;70.27;101849.98;105525;1288;60507;-81
2023/02/27 03:58:20;;;;;;;;;;;;;;;-1.24;70.26;101850.38;105361;1290;61976;-81
2023/02/27 04:01:06;;;;;;;;;;;;;;;-1.17;70.33;101856.16;105355;1288;75250;-81
2023/02/27 04:03:56;;;;;;;;;;;;;;;-1.12;70.28;101856.77;105425;1288;68463;-82
2023/02/27 04:10:09;;;;;;;;;;;;;;;-0.99;70.46;101861.45;105531;1288;60286;-81
2023/02/27 04:13:04;;;;;;;;;;;;;;;-0.96;70.37;101861.40;105481;1288;60238;-81
2023/02/27 04:16:10;;;;;;;;;;;;;;;-0.93;70.50;101866.65;105502;1288;74109;-81
2023/02/27 04:19:15;;;;;;;;;;;;;;;-0.88;70.49;101869.96;105445;1288;67229;-81
2023/02/27 04:22:05;;;;;;;;;;;;;;;-0.85;70.48;101874.69;105408;1293;75403;-81
2023/02/27 04:24:57;;;;;;;;;;;;;;;-0.82;70.54;101873.48;105455;1288;62033;-81
2023/02/27 04:27:46;;;;;;;;;;;;;;;-0.80;70.52;101871.89;105404;1288;62099;-81
2023/02/27 04:30:44;;;;;;;;;;;;;;;-0.76;70.50;101879.35;105475;1292;75498;-81
2023/02/27 04:33:39;;;;;;;;;;;;;;;-0.74;70.53;101880.67;105450;1288;67843;-81
2023/02/27 04:36:57;;;;;;;;;;;;;;;-0.71;70.55;101890.30;105456;1288;72272;-81
2023/02/27 04:39:55;;;;;;;;;;;;;;;-0.68;70.60;101893.30;104805;1296;60577;-81
2023/02/27 04:42:46;;;;;;;;;;;;;;;-0.66;70.58;101894.07;104801;1297;61982;-81
2023/02/27 04:45:34;;;;;;;;;;;;;;;-0.65;70.69;101898.88;104933;1297;74077;-81
2023/02/27 04:48:25;;;;;;;;;;;;;;;-0.63;70.70;101896.07;104839;1296;67289;-81
2023/02/27 04:51:13;;;;;;;;;;;;;;;-0.62;70.71;101890.04;104834;1297;72436;-81
2023/02/27 04:54:03;;;;;;;;;;;;;;;-0.62;70.71;101890.23;104788;1297;61988;-82
2023/02/27 04:56:52;;;;;;;;;;;;;;;-0.61;70.76;101890.42;104872;1297;59968;-81
2023/02/27 04:59:42;;;;;;;;;;;;;;;-0.59;70.78;101891.86;104739;1297;76423;-81
2023/02/27 05:02:31;;;;;;;;;;;;;;;-0.59;70.86;101888.81;104888;1299;66313;-81
2023/02/27 05:05:21;;;;;;;;;;;;;;;-0.58;70.85;101895.49;104774;1297;72886;-81
2023/02/27 05:08:45;;;;;;;;;;;;;;;-0.56;70.88;101892.70;104686;1296;62793;-81
2023/02/27 05:11:37;;;;;;;;;;;;;;;-0.54;70.84;101897.71;104355;1302;62094;-74
2023/02/27 05:14:58;;;;;;;;;;;;;;;-0.54;70.92;101899.76;103979;1302;74411;-73
2023/02/27 05:17:47;;;;;;;;;;;;;;;-0.53;70.94;101899.48;104047;1303;68575;-75
2023/02/27 05:20:53;;;;;;;;;;;;;;;-0.53;70.97;101903.36;103914;1301;71305;-75
2023/02/27 05:23:39;;;;;;;;;;;;;;;-0.54;71.02;101904.19;103987;1302;62111;-74
2023/02/27 05:26:25;;;;;;;;;;;;;;;-0.53;71.10;101901.66;104025;1302;61928;-74
2023/02/27 05:29:11;;;;;;;;;;;;;;;-0.50;71.04;101902.27;104084;1303;73995;-74
2023/02/27 05:32:19;;;;;;;;;;;;;;;-0.48;71.06;101906.64;103962;1305;67296;-74
2023/02/27 05:35:10;;;;;;;;;;;;;;;-0.47;71.12;101908.89;103518;1308;71582;-74
2023/02/27 05:38:02;;;;;;;;;;;;;;;-0.45;71.04;101911.52;103434;1307;62143;-74
2023/02/27 05:41:00;;;;;;;;;;;;;;;-0.44;71.22;101912.94;103450;1307;62057;-74
2023/02/27 05:43:52;;;;;;;;;;;;;;;-0.43;71.17;101918.76;104092;1302;75346;-73
2023/02/27 05:46:42;;;;;;;;;;;;;;;-0.42;71.18;101924.38;104083;1302;67340;-73
2023/02/27 05:49:31;;;;;;;;;;;;;;;-0.41;71.22;101932.07;104093;1302;71172;-73
2023/02/27 05:52:20;;;;;;;;;;;;;;;-0.40;71.28;101940.92;104328;1294;59878;-73
2023/02/27 05:55:06;;;;;;;;;;;;;;;-0.40;71.18;101947.20;104511;1294;62024;-73
2023/02/27 05:57:52;;;;;;;;;;;;;;;-0.38;71.33;101949.33;104459;1298;74004;-73
2023/02/27 06:00:42;;;;;;;;;;;;;;;-0.36;71.27;101949.09;104560;1294;67234;-73
2023/02/27 06:03:30;;;;;;;;;;;;;;;-0.34;71.35;101951.23;104599;1294;71448;-73
2023/02/27 06:06:17;;;;;;;;;;;;;;;-0.31;71.32;101955.60;104469;1297;62179;-73
2023/02/27 06:09:04;;;;;;;;;;;;;;;-0.28;71.26;101960.61;104492;1299;61840;-73
2023/02/27 06:11:50;;;;;;;;;;;;;;;-0.27;71.28;101962.39;104618;1296;74008;-73
2023/02/27 06:14:36;;;;;;;;;;;;;;;-0.25;71.33;101967.77;105088;1289;67285;-73
2023/02/27 06:17:22;;;;;;;;;;;;;;;-0.23;71.33;101968.53;105076;1291;71154;-73
2023/02/27 06:20:09;;;;;;;;;;;;;;;-0.21;71.35;101971.86;105030;1293;62077;-73
2023/02/27 06:22:55;;;;;;;;;;;;;;;-0.20;71.35;101970.05;105051;1290;60212;-73
2023/02/27 06:25:41;;;;;;;;;;;;;;;-0.17;71.37;101974.05;101219;1293;5003403;-73
2023/02/27 06:28:27;;;;;;;;;;;;;;;-0.16;71.37;101975.98;104816;1295;71444;-73
2023/02/27 06:31:14;;;;;;;;;;;;;;;-0.18;71.40;101970.81;104870;1291;61948;-73
2023/02/27 06:34:00;;;;;;;;;;;;;;;-0.19;71.33;101973.45;104895;1290;60391;-73
2023/02/27 06:36:47;;;;;;;;;;;;;;;-0.19;71.50;101972.27;105032;1291;75778;-73
2023/02/27 06:39:33;;;;;;;;;;;;;;;-0.18;71.47;101977.09;104966;1289;68589;-73
2023/02/27 06:42:19;;;;;;;;;;;;;;;-0.16;71.45;101983.11;104891;1293;74010;-74
2023/02/27 06:45:06;;;;;;;;;;;;;;;-0.15;71.38;101985.37;104931;1291;62082;-73
2023/02/27 06:47:52;;;;;;;;;;;;;;;-0.13;71.52;101983.44;104931;1290;62881;-73
2023/02/27 06:50:38;;;;;;;;;;;;;;;-0.10;71.51;101985.79;104991;1289;74004;-73
2023/02/27 06:53:24;;;;;;;;;;;;;;;-0.08;71.51;101990.95;104995;1293;72081;-73
2023/02/27 06:56:10;;;;;;;;;;;;;;;-0.07;71.51;101995.43;104981;1293;70479;-74
2023/02/27 06:58:56;;;;;;;;;;;;;;;-0.06;71.51;101993.08;104993;1292;64156;-73
2023/02/27 07:01:42;;;;;;;;;;;;;;;-0.03;71.66;101999.70;104982;1293;61952;-73
2023/02/27 07:04:29;;;;;;;;;;;;;;;-0.01;71.65;102000.98;104934;1293;74451;-73
2023/02/27 07:07:15;;;;;;;;;;;;;;;0.03;71.55;102005.36;105071;1294;68870;-73
2023/02/27 07:10:01;;;;;;;;;;;;;;;0.06;71.59;102013.33;105087;1291;72037;-73
2023/02/27 07:12:47;;;;;;;;;;;;;;;0.10;71.67;102015.70;105102;1291;61619;-73
2023/02/27 07:15:33;;;;;;;;;;;;;;;0.12;71.71;102017.68;105056;1289;61883;-73
2023/02/27 07:18:19;;;;;;;;;;;;;;;0.16;71.76;102020.61;105049;1293;74479;-74
2023/02/27 07:21:05;;;;;;;;;;;;;;;0.19;71.75;102025.96;105091;1289;67110;-73
2023/02/27 07:23:51;;;;;;;;;;;;;;;0.23;71.73;102030.76;105096;1291;71950;-74
2023/02/27 07:26:37;;;;;;;;;;;;;;;0.29;71.72;102034.48;105027;1293;62108;-74
2023/02/27 07:29:24;;;;;;;;;;;;;;;0.36;71.74;102032.90;105085;1289;61952;-73
2023/02/27 07:32:10;;;;;;;;;;;;;;;0.41;71.77;102034.36;104847;1291;307972;-73
2023/02/27 07:34:56;;;;;;;;;;;;;;;0.45;71.76;102035.23;105058;1290;67270;-73
2023/02/27 07:37:42;;;;;;;;;;;;;;;0.50;71.82;102034.43;105000;1290;72952;-73
2023/02/27 07:40:28;;;;;;;;;;;;;;;0.57;71.83;102034.27;105020;1291;60608;-73
2023/02/27 07:43:14;;;;;;;;;;;;;;;0.67;71.89;102037.27;105139;1289;61968;-73
2023/02/27 07:46:02;;;;;;;;;;;;;;;0.76;71.97;102036.35;105048;1293;79804;-73
2023/02/27 07:48:49;;;;;;;;;;;;;;;0.85;71.86;102042.02;105070;1289;68562;-73
2023/02/27 07:51:35;;;;;;;;;;;;;;;0.91;71.89;102039.40;104930;1289;72792;-74
2023/02/27 07:54:21;;;;;;;;;;;;;;;0.95;71.73;102042.48;105096;1289;61235;-74
2023/02/27 07:57:07;;;;;;;;;;;;;;;0.98;71.79;102041.27;105055;1291;60301;-74
2023/02/27 07:59:53;;;;;;;;;;;;;;;1.03;71.84;102043.33;104949;1289;73976;-73
2023/02/27 08:02:39;;;;;;;;;;;;;;;1.06;71.83;102044.48;105108;1292;68628;-73
2023/02/27 08:05:25;;;;;;;;;;;;;;;1.10;71.78;102047.20;105019;1293;72619;-73
2023/02/27 08:08:11;;;;;;;;;;;;;;;1.13;71.76;102050.90;104997;1290;62195;-74
2023/02/27 08:10:58;;;;;;;;;;;;;;;1.15;71.72;102052.02;104938;1293;61800;-74
2023/02/27 08:13:46;;;;;;;;;;;;;;;1.20;71.83;102048.19;105015;1293;74589;-74
2023/02/27 08:16:33;;;;;;;;;;;;;;;1.26;71.78;102042.52;104987;1293;71420;-74
2023/02/27 08:19:19;;;;;;;;;;;;;;;1.35;71.91;102046.80;104831;1291;71401;-73
2023/02/27 08:22:06;;;;;;;;;;;;;;;1.45;71.93;102055.42;104937;1289;61908;-73
2023/02/27 08:24:52;;;;;;;;;;;;;;;1.52;71.79;102054.55;105026;1291;62362;-74
2023/02/27 08:27:38;;;;;;;;;;;;;;;1.57;71.83;102057.48;105003;1290;74614;-73
2023/02/27 08:30:24;;;;;;;;;;;;;;;1.61;71.82;102050.96;105033;1291;67960;-74
2023/02/27 08:33:10;;;;;;;;;;;;;;;1.64;71.83;102050.63;105072;1290;74066;-74
2023/02/27 08:35:57;;;;;;;;;;;;;;;1.72;71.90;102053.83;105011;1290;61974;-74
2023/02/27 08:38:43;;;;;;;;;;;;;;;1.78;71.90;102056.30;105033;1294;61441;-73
2023/02/27 08:41:29;;;;;;;;;;;;;;;1.84;72.02;102050.48;105053;1293;76532;-73
2023/02/27 08:44:15;;;;;;;;;;;;;;;1.93;71.97;102054.23;105010;1294;67573;-74
2023/02/27 08:47:01;;;;;;;;;;;;;;;2.00;71.84;102056.26;104946;1293;71421;-74
2023/02/27 08:49:47;;;;;;;;;;;;;;;2.08;71.86;102063.67;105050;1294;60394;-74
2023/02/27 08:52:33;;;;;;;;;;;;;;;2.14;71.85;102071.61;105038;1289;62460;-73
2023/02/27 08:55:20;;;;;;;;;;;;;;;2.19;71.85;102076.92;104799;1298;74443;-73
2023/02/27 08:58:06;;;;;;;;;;;;;;;2.22;71.64;102085.38;105059;1289;67594;-73
2023/02/27 09:00:52;;;;;;;;;;;;;;;2.21;71.70;102085.14;104934;1289;72441;-73
2023/02/27 09:03:38;;;;;;;;;;;;;;;2.21;71.69;102089.43;104938;1289;59948;-73
2023/02/27 09:06:25;;;;;;;;;;;;;;;2.23;71.63;102093.43;104991;1293;60532;-73
2023/02/27 09:09:11;;;;;;;;;;;;;;;2.26;71.70;102095.42;105064;1295;74079;-73
2023/02/27 09:11:57;;;;;;;;;;;;;;;2.37;71.76;102094.82;105095;1294;67229;-73
2023/02/27 09:14:43;;;;;;;;;;;;;;;2.39;71.64;102101.06;104956;1294;71148;-73
2023/02/27 09:17:29;;;;;;;;;;;;;;;2.38;71.54;102104.55;105088;1294;61884;-73
2023/02/27 09:20:15;;;;;;;;;;;;;;;2.34;71.53;102105.26;105065;1290;61864;-73
2023/02/27 09:23:02;;;;;;;;;;;;;;;2.31;71.63;102104.46;104958;1297;75050;-74
2023/02/27 09:25:48;;;;;;;;;;;;;;;2.32;71.62;102106.70;105065;1289;69999;-73
2023/02/27 09:28:35;;;;;;;;;;;;;;;2.36;71.58;102107.88;105049;1293;74048;-73
2023/02/27 09:31:21;;;;;;;;;;;;;;;2.40;71.62;102107.39;105069;1293;64505;-74
2023/02/27 09:34:07;;;;;;;;;;;;;;;2.46;71.68;102106.77;105009;1289;61914;-73
2023/02/27 09:36:57;;;;;;;;;;;;;;;2.51;71.60;102108.52;105140;1293;75157;-74
2023/02/27 09:39:43;;;;;;;;;;;;;;;2.54;71.62;102109.16;104995;1295;67200;-73
2023/02/27 09:42:35;;;;;;;;;;;;;;;2.57;71.54;102113.20;105024;1293;72689;-73
2023/02/27 09:45:23;;;;;;;;;;;;;;;2.60;71.50;102109.73;105095;1292;63904;-74
2023/02/27 09:48:25;;;;;;;;;;;;;;;2.64;71.49;102115.14;104990;1291;62084;-74
2023/02/27 09:51:14;;;;;;;;;;;;;;;2.66;71.44;102115.76;104964;1289;75180;-74
2023/02/27 09:54:00;;;;;;;;;;;;;;;2.66;71.38;102115.41;104983;1295;67187;-73
2023/02/27 09:56:52;;;;;;;;;;;;;;;2.73;71.35;102117.55;105043;1290;71113;-73
2023/02/27 10:00:05;;;;;;;;;;;;;;;2.81;71.43;102118.55;105098;1290;62080;-74
2023/02/27 10:03:15;;;;;;;;;;;;;;;2.89;71.39;102116.48;104959;1291;60265;-73
2023/02/27 10:06:24;;;;;;;;;;;;;;;2.96;71.44;102116.43;104567;1300;74821;-73
2023/02/27 10:09:19;;;;;;;;;;;;;;;3.06;71.40;102120.55;104060;1305;67307;-73
2023/02/27 10:12:13;;;;;;;;;;;;;;;3.14;71.34;102124.41;104093;1303;71400;-73
2023/02/27 10:15:04;;;;;;;;;;;;;;;3.18;71.32;102123.88;104169;1305;62155;-73
2023/02/27 10:17:53;;;;;;;;;;;;;;;3.22;71.36;102122.53;104148;1305;60166;-74
2023/02/27 10:20:44;;;;;;;;;;;;;;;3.25;71.18;102122.30;104067;1307;74932;-74
2023/02/27 10:23:34;;;;;;;;;;;;;;;3.31;71.32;102128.33;104103;1304;68990;-73
2023/02/27 10:26:32;;;;;;;;;;;;;;;3.40;71.36;102128.30;104081;1307;72795;-74
2023/02/27 10:29:23;;;;;;;;;;;;;;;3.49;71.37;102134.27;104158;1304;61900;-73
2023/02/27 10:32:30;;;;;;;;;;;;;;;3.57;71.19;102139.70;104182;1302;61966;-73
2023/02/27 10:35:21;;;;;;;;;;;;;;;3.60;71.25;102129.92;103621;1309;74116;-73
2023/02/27 10:38:40;;;;;;;;;;;;;;;3.62;71.16;102133.77;103516;1311;67330;-73
2023/02/27 10:41:26;;;;;;;;;;;;;;;3.58;71.18;102133.42;102986;1314;72005;-73
2023/02/27 10:44:14;;;;;;;;;;;;;;;3.59;71.12;102136.54;103304;1309;61022;-75
2023/02/27 10:47:01;;;;;;;;;;;;;;;3.63;71.25;102138.20;103783;1305;60536;-75
2023/02/27 10:49:47;;;;;;;;;;;;;;;3.67;71.11;102141.91;103902;1305;76884;-75
2023/02/27 10:52:46;;;;;;;;;;;;;;;3.67;71.13;102141.91;103948;1308;68809;-75
2023/02/27 10:55:35;;;;;;;;;;;;;;;3.76;71.26;102140.33;103881;1305;71608;-75
2023/02/27 10:58:21;;;;;;;;;;;;;;;3.85;71.26;102144.79;103875;1307;61987;-75
2023/02/27 11:01:09;;;;;;;;;;;;;;;3.94;71.16;102147.67;104009;1304;62110;-75
2023/02/27 11:03:55;;;;;;;;;;;;;;;4.02;71.16;102147.42;103974;1307;75419;-75
2023/02/27 11:06:42;;;;;;;;;;;;;;;4.03;70.91;102146.95;103920;1307;67260;-75
2023/02/27 11:09:31;;;;;;;;;;;;;;;4.01;71.03;102147.58;103857;1308;73758;-75
2023/02/27 11:12:25;;;;;;;;;;;;;;;4.08;71.04;102143.20;103923;1306;60590;-75
2023/02/27 11:15:14;;;;;;;;;;;;;;;4.12;70.95;102143.38;104151;1299;62892;-75
2023/02/27 11:18:23;;;;;;;;;;;;;;;4.12;70.84;102145.05;104826;1290;74946;-75
2023/02/27 11:21:14;;;;;;;;;;;;;;;4.11;70.85;102142.63;104997;1291;68091;-73
2023/02/27 11:24:02;;;;;;;;;;;;;;;4.06;70.67;102143.16;104979;1297;71911;-73
2023/02/27 11:26:56;;;;;;;;;;;;;;;4.03;70.52;102143.36;104872;1291;62043;-73
2023/02/27 11:29:54;;;;;;;;;;;;;;;3.99;70.52;102141.53;104888;1291;62166;-73
2023/02/27 11:32:48;;;;;;;;;;;;;;;3.95;70.33;102140.37;105021;1290;73993;-73
2023/02/27 11:35:36;;;;;;;;;;;;;;;3.94;70.44;102135.23;104944;1289;70065;-73
2023/02/27 11:38:23;;;;;;;;;;;;;;;3.97;70.51;102133.61;104929;1290;71176;-73
2023/02/27 11:41:10;;;;;;;;;;;;;;;4.03;70.43;102131.42;105159;1290;62277;-73
2023/02/27 11:43:58;;;;;;;;;;;;;;;4.02;70.32;102125.76;105102;1290;62894;-73
2023/02/27 11:46:44;;;;;;;;;;;;;;;3.98;70.30;102129.20;104966;1293;74130;-73
2023/02/27 11:49:39;;;;;;;;;;;;;;;3.93;70.03;102134.84;105001;1293;67277;-73
2023/02/27 11:52:31;;;;;;;;;;;;;;;3.82;69.87;102131.54;105038;1291;73257;-73
2023/02/27 11:55:19;;;;;;;;;;;;;;;3.71;69.87;102133.86;104832;1293;62048;-73
2023/02/27 11:58:13;;;;;;;;;;;;;;;3.66;69.87;102134.21;104999;1289;60519;-73
2023/02/27 12:01:08;;;;;;;;;;;;;;;3.69;69.96;102134.14;105082;1293;75711;-73
2023/02/27 12:04:10;;;;;;;;;;;;;;;3.75;69.92;102134.01;104988;1290;67279;-73
2023/02/27 12:07:03;;;;;;;;;;;;;;;3.79;69.72;102132.80;105087;1290;70436;-73
2023/02/27 12:09:59;;;;;;;;;;;;;;;3.79;69.51;102132.27;105054;1289;61942;-73
2023/02/27 12:12:59;;;;;;;;;;;;;;;3.80;69.70;102132.16;105061;1289;60335;-73
2023/02/27 12:16:08;;;;;;;;;;;;;;;3.80;69.47;102134.37;105065;1290;74315;-73
2023/02/27 12:19:13;;;;;;;;;;;;;;;3.78;69.59;102133.77;104958;1290;68478;-73
2023/02/27 12:22:05;;;;;;;;;;;;;;;3.78;69.64;102130.20;105128;1289;71148;-73
2023/02/27 12:24:54;;;;;;;;;;;;;;;3.76;69.47;102126.70;105041;1289;61977;-73
2023/02/27 12:28:10;;;;;;;;;;;;;;;3.70;69.53;102126.14;105085;1293;60380;-73
2023/02/27 12:31:11;;;;;;;;;;;;;;;3.66;69.30;102123.95;104561;1296;74904;-79
2023/02/27 12:34:02;;;;;;;;;;;;;;;3.63;69.37;102125.08;104409;1297;67670;-79
2023/02/27 12:36:50;;;;;;;;;;;;;;;3.60;69.16;102131.96;104398;1296;74127;-79
2023/02/27 12:39:37;;;;;;;;;;;;;;;3.54;69.19;102130.21;104456;1296;60539;-79
2023/02/27 12:43:01;;;;;;;;;;;;;;;3.49;69.25;102130.02;104420;1294;60314;-79
2023/02/27 12:45:50;;;;;;;;;;;;;;;3.42;69.18;102131.11;104062;1303;74729;-79
2023/02/27 12:48:42;;;;;;;;;;;;;;;3.36;69.22;102126.61;104141;1300;70206;-79
2023/02/27 12:51:58;;;;;;;;;;;;;;;3.38;69.28;102131.10;104114;1302;73175;-80
2023/02/27 12:54:55;;;;;;;;;;;;;;;3.40;69.29;102127.46;104191;1305;60024;-80
2023/02/27 12:58:00;;;;;;;;;;;;;;;3.46;69.30;102129.39;104520;1304;60469;-82
2023/02/27 13:00:59;;;;;;;;;;;;;;;3.55;69.26;102128.36;104562;1302;76575;-82
2023/02/27 13:04:01;;;;;;;;;;;;;;;3.65;69.09;102124.27;104490;1302;69641;-82
2023/02/27 13:07:03;;;;;;;;;;;;;;;3.70;69.02;102124.98;104573;1297;70698;-81
2023/02/27 13:10:00;;;;;;;;;;;;;;;3.77;69.13;102128.29;104987;1297;60383;-81
2023/02/27 13:12:49;;;;;;;;;;;;;;;3.77;69.01;102131.02;104853;1296;59994;-81
2023/02/27 13:16:01;;;;;;;;;;;;;;;3.70;68.92;102129.39;104880;1296;74682;-81
2023/02/27 13:18:48;;;;;;;;;;;;;;;3.62;68.90;102132.02;104762;1301;68338;-78
2023/02/27 13:21:44;;;;;;;;;;;;;;;3.61;68.89;102132.34;104490;1301;71863;-79
2023/02/27 13:24:31;;;;;;;;;;;;;;;3.61;68.79;102137.30;104392;1296;60618;-79
2023/02/27 13:27:37;;;;;;;;;;;;;;;3.59;68.73;102132.27;104292;1296;60146;-79
2023/02/27 13:30:26;;;;;;;;;;;;;;;3.56;68.80;102134.71;103765;1302;74882;-79
2023/02/27 13:33:32;;;;;;;;;;;;;;;3.53;68.69;102137.48;103987;1302;68016;-79
2023/02/27 13:36:32;;;;;;;;;;;;;;;3.49;68.83;102138.88;103945;1303;72269;-79
2023/02/27 13:39:36;;;;;;;;;;;;;;;3.50;68.82;102139.95;103962;1305;60187;-79
2023/02/27 13:42:26;;;;;;;;;;;;;;;3.50;68.79;102141.81;104949;1302;59876;-79
2023/02/27 13:45:30;;;;;;;;;;;;;;;3.50;68.70;102145.05;105022;1302;74096;-79
2023/02/27 13:48:35;;;;;;;;;;;;;;;3.54;68.75;102146.76;104851;1302;68940;-79
2023/02/27 13:51:55;;;;;;;;;;;;;;;3.60;68.69;102146.96;104939;1303;72121;-80
2023/02/27 13:54:41;;;;;;;;;;;;;;;3.61;68.47;102149.75;104413;1311;60275;-79
2023/02/27 13:57:30;;;;;;;;;;;;;;;3.60;68.59;102144.77;104815;1305;60077;-75
2023/02/27 14:00:37;;;;;;;;;;;;;;;3.58;68.50;102146.20;104643;1307;74585;-75
2023/02/27 14:03:25;;;;;;;;;;;;;;;3.57;68.44;102147.17;104385;1308;69447;-75
2023/02/27 14:06:11;;;;;;;;;;;;;;;3.57;68.56;102149.75;104356;1308;71560;-75
2023/02/27 14:08:59;;;;;;;;;;;;;;;3.53;68.39;102148.42;104922;1302;59865;-75
2023/02/27 14:11:53;;;;;;;;;;;;;;;3.51;68.37;102149.55;104972;1302;59898;-75
2023/02/27 14:14:47;;;;;;;;;;;;;;;3.49;68.40;102150.31;104891;1302;74402;-75
2023/02/27 14:17:33;;;;;;;;;;;;;;;3.46;68.09;102151.39;104948;1302;67626;-75
2023/02/27 14:20:23;;;;;;;;;;;;;;;3.44;68.26;102153.02;97634;1302;10002197;-75
2023/02/27 14:23:25;;;;;;;;;;;;;;;3.44;67.97;102157.61;104498;1302;62268;-75
2023/02/27 14:26:16;;;;;;;;;;;;;;;3.41;68.20;102157.33;103847;1302;74751;-74
2023/02/27 14:29:02;;;;;;;;;;;;;;;3.39;68.18;102155.73;103775;1302;68244;-74
2023/02/27 14:31:49;;;;;;;;;;;;;;;3.40;68.12;102160.34;104282;1297;71190;-75
2023/02/27 14:34:37;;;;;;;;;;;;;;;3.39;68.04;102165.60;104260;1296;62095;-74
2023/02/27 14:37:25;;;;;;;;;;;;;;;3.37;68.00;102166.70;104253;1297;62343;-74